Time;durP1;ratioP1;P1;durP2;ratioP2;P2;SDS_P1;SDS_P2;PMS_P1;PMS_P2;Temp;Humidity;BMP_temperature;BMP_pressure;BME280_temperature;BME280_humidity;BME280_pressure;Samples;Min_cycle;Max_cycle;Signal;HPM_P1;HPM_P2
2021/08/09 00:01:07;;;;;;;7.65;1.75;;;20.40;97.80;;;;;;11956136;28;20075;-78
2021/08/09 00:06:55;;;;;;;9.60;1.60;;;20.30;97.60;;;;;;11963974;28;20535;-78
2021/08/09 07:12:09;;;;;;;12.13;3.63;;;17.80;99.90;;;;;;12074270;28;20488;-57
2021/08/09 07:17:56;;;;;;;9.55;3.10;;;18.20;99.90;;;;;;12021774;28;20060;-56
2021/08/09 07:23:43;;;;;;;8.43;3.10;;;19.10;99.90;;;;;;12025386;28;20044;-54
2021/08/09 07:29:32;;;;;;;15.63;3.47;;;19.70;99.90;;;;;;12022211;28;20053;-56
2021/08/09 07:35:19;;;;;;;11.88;3.45;;;19.80;99.90;;;;;;12020408;28;20072;-55
2021/08/09 07:41:15;;;;;;;14.75;3.35;;;19.90;99.90;;;;;;12025511;28;20052;-56
2021/08/09 07:47:13;;;;;;;14.65;3.45;;;20.00;99.90;;;;;;12058602;28;20087;-52
2021/08/09 07:53:00;;;;;;;10.95;3.63;;;20.10;99.90;;;;;;12034923;28;20041;-55
2021/08/09 07:58:47;;;;;;;9.43;3.60;;;20.20;99.90;;;;;;12036403;28;20159;-55
2021/08/09 08:04:35;;;;;;;11.70;3.83;;;20.20;99.90;;;;;;12056797;28;20156;-52
2021/08/09 08:10:23;;;;;;;14.70;3.85;;;20.20;99.90;;;;;;12056158;28;20071;-55
2021/08/09 08:16:10;;;;;;;12.05;4.00;;;20.10;99.90;;;;;;12056243;28;20071;-53
2021/08/09 08:21:58;;;;;;;13.02;3.38;;;20.20;99.90;;;;;;12031301;28;20049;-54
2021/08/09 08:27:45;;;;;;;7.75;3.20;;;20.30;99.90;;;;;;12024675;28;20049;-53
2021/08/09 08:33:32;;;;;;;11.70;3.33;;;20.50;99.90;;;;;;12023773;28;20513;-56
2021/08/09 08:39:21;;;;;;;18.40;3.70;;;20.50;99.90;;;;;;11990433;28;20111;-52
2021/08/09 08:45:09;;;;;;;12.13;3.65;;;20.60;99.90;;;;;;11988116;28;20053;-54
2021/08/09 08:50:57;;;;;;;11.90;3.28;;;20.60;99.90;;;;;;11987500;28;20456;-55
2021/08/09 08:56:46;;;;;;;7.13;2.97;;;20.50;99.90;;;;;;11983752;28;20147;-54
2021/08/09 09:02:35;;;;;;;14.75;3.33;;;20.30;99.90;;;;;;11986831;28;20049;-54
2021/08/09 09:08:36;;;;;;;10.63;3.28;;;20.30;99.90;;;;;;11995703;28;20057;-54
2021/08/09 09:14:30;;;;;;;9.55;3.15;;;20.50;99.90;;;;;;12021872;28;20048;-55
2021/08/09 09:20:24;;;;;;;;;;;20.40;99.90;;;;;;12022546;28;20044;-55
2021/08/09 09:26:22;;;;;;;9.32;3.05;;;20.70;99.90;;;;;;12022027;28;19929;-53
2021/08/09 09:32:18;;;;;;;10.35;3.25;;;20.90;99.90;;;;;;12020316;28;20492;-57
2021/08/09 09:38:06;;;;;;;9.07;2.85;;;21.20;99.90;;;;;;12021027;28;20045;-56
2021/08/09 09:43:53;;;;;;;12.93;3.20;;;21.30;99.90;;;;;;12020397;28;20416;-54
2021/08/09 09:49:41;;;;;;;10.63;3.28;;;21.30;99.90;;;;;;12018891;28;20141;-55
2021/08/09 09:55:28;;;;;;;8.45;2.45;;;21.60;99.90;;;;;;11985555;28;20535;-57
2021/08/09 10:01:14;;;;;;;9.82;3.13;;;21.70;99.90;;;;;;11985762;28;20451;-58
2021/08/09 10:07:03;;;;;;;8.45;2.92;;;21.70;99.90;;;;;;11984560;28;20049;-58
2021/08/09 10:12:52;;;;;;;9.85;3.17;;;21.60;99.90;;;;;;11983668;28;20095;-56
2021/08/09 10:18:47;;;;;;;9.20;2.75;;;21.50;99.90;;;;;;11987139;28;20741;-56
2021/08/09 10:24:40;;;;;;;5.90;2.88;;;21.40;99.90;;;;;;11984558;28;20424;-57
2021/08/09 10:30:34;;;;;;;8.73;2.93;;;21.20;99.90;;;;;;12017908;28;20049;-56
2021/08/09 10:36:21;;;;;;;8.45;3.22;;;21.40;99.90;;;;;;12018684;28;20052;-53
2021/08/09 10:42:09;;;;;;;7.35;3.45;;;21.70;99.90;;;;;;12017385;28;20412;-58
2021/08/09 10:47:58;;;;;;;5.30;2.40;;;21.90;99.90;;;;;;12018784;28;20049;-57
2021/08/09 10:53:47;;;;;;;10.20;2.60;;;21.90;99.90;;;;;;11991958;28;20045;-56
2021/08/09 10:59:44;;;;;;;6.38;2.75;;;22.10;99.90;;;;;;11982386;28;20425;-55
2021/08/09 11:05:31;;;;;;;7.80;2.20;;;22.40;99.90;;;;;;11981618;28;20144;-57
2021/08/09 11:11:21;;;;;;;6.78;2.20;;;22.60;99.90;;;;;;11983779;28;20049;-57
2021/08/09 11:17:09;;;;;;;6.82;2.72;;;23.00;99.50;;;;;;11969889;28;20121;-57
2021/08/09 11:23:02;;;;;;;7.35;2.70;;;22.80;98.20;;;;;;11981958;28;20045;-56
2021/08/09 11:28:58;;;;;;;5.20;2.13;;;22.50;98.70;;;;;;11985920;28;20041;-57
2021/08/09 11:41:12;;;;;;;6.13;2.42;;;22.60;97.70;;;;;;12144426;27;20482;-54
2021/08/09 11:46:59;;;;;;;8.40;2.63;;;22.70;97.90;;;;;;12129879;28;20036;-54
2021/08/09 11:52:45;;;;;;;5.30;2.33;;;22.70;97.80;;;;;;12141325;28;20039;-55
2021/08/09 11:58:34;;;;;;;6.95;2.33;;;23.10;98.10;;;;;;12143358;28;20052;-55
2021/08/09 12:04:22;;;;;;;8.95;2.30;;;23.00;96.20;;;;;;12129987;28;20055;-56
2021/08/09 12:10:09;;;;;;;8.15;2.25;;;22.70;97.20;;;;;;12134546;28;20051;-56
2021/08/09 12:16:08;;;;;;;10.23;2.13;;;23.20;96.50;;;;;;12142276;28;20043;-56
2021/08/09 12:22:09;;;;;;;8.57;2.40;;;23.50;95.30;;;;;;12127589;28;20044;-54
2021/08/09 12:28:00;;;;;;;13.25;2.17;;;23.70;95.10;;;;;;12140043;28;20043;-54
2021/08/09 12:34:00;;;;;;;5.20;1.80;;;23.90;94.30;;;;;;12146909;28;20128;-56
2021/08/09 12:39:47;;;;;;;4.38;1.48;;;23.90;93.00;;;;;;12132373;28;20051;-56
2021/08/09 12:45:34;;;;;;;9.40;2.17;;;23.90;93.40;;;;;;12139908;28;20040;-55
2021/08/09 12:51:23;;;;;;;4.65;1.90;;;24.30;93.20;;;;;;12109310;28;21234;-56
2021/08/09 12:57:11;;;;;;;5.55;1.83;;;24.30;92.20;;;;;;12098772;28;20610;-56
2021/08/09 13:02:58;;;;;;;11.93;2.10;;;23.80;92.20;;;;;;12106478;28;20438;-55
2021/08/09 13:08:48;;;;;;;7.28;2.63;;;23.90;92.40;;;;;;12102455;28;20676;-55
2021/08/09 13:14:36;;;;;;;6.88;1.70;;;24.30;92.10;;;;;;12098510;28;20062;-56
2021/08/09 13:20:23;;;;;;;10.77;2.30;;;24.60;91.80;;;;;;12106825;28;20051;-55
2021/08/09 13:26:13;;;;;;;6.35;2.10;;;24.50;91.60;;;;;;12102462;28;20503;-55
2021/08/09 13:32:00;;;;;;;6.78;1.90;;;24.50;92.00;;;;;;12096924;28;20445;-54
2021/08/09 13:37:47;;;;;;;6.80;1.75;;;24.20;91.50;;;;;;12108036;28;20508;-55
2021/08/09 13:43:35;;;;;;;6.90;2.08;;;24.00;92.10;;;;;;12097971;28;20193;-53
2021/08/09 13:49:22;;;;;;;8.07;2.05;;;23.90;92.70;;;;;;12098884;28;20062;-55
2021/08/09 13:55:10;;;;;;;8.00;2.70;;;23.40;92.90;;;;;;12103606;28;20044;-56
2021/08/09 14:00:58;;;;;;;5.38;2.20;;;23.30;93.10;;;;;;12096877;28;20047;-52
2021/08/09 14:06:45;;;;;;;13.50;2.70;;;23.10;93.60;;;;;;12105408;28;20052;-55
2021/08/09 14:12:31;;;;;;;5.38;2.22;;;23.20;93.80;;;;;;12099106;28;20048;-55
2021/08/09 14:18:20;;;;;;;5.90;1.95;;;23.50;93.80;;;;;;12098566;28;20380;-55
2021/08/09 14:24:07;;;;;;;6.97;2.28;;;23.40;93.50;;;;;;12093101;28;20731;-55
2021/08/09 14:29:54;;;;;;;9.80;1.80;;;23.30;93.60;;;;;;12100908;28;20044;-55
2021/08/09 14:35:42;;;;;;;10.07;2.35;;;23.40;93.30;;;;;;12103078;28;20040;-56
2021/08/09 14:41:29;;;;;;;4.57;2.08;;;23.40;93.20;;;;;;12093789;28;20072;-55
2021/08/09 14:47:16;;;;;;;4.95;1.60;;;23.60;92.90;;;;;;12106572;28;20040;-55
2021/08/09 14:59:47;;;;;;;9.45;2.10;;;23.90;92.20;;;;;;12113971;28;20036;-57
2021/08/09 15:05:34;;;;;;;6.57;2.00;;;24.00;91.80;;;;;;12102666;28;20463;-51
2021/08/09 15:11:20;;;;;;;5.00;1.85;;;24.20;92.10;;;;;;12108602;28;20074;-51
2021/08/09 15:17:10;;;;;;;5.75;1.85;;;24.40;91.30;;;;;;12113796;28;20519;-52
2021/08/09 15:22:57;;;;;;;5.88;2.20;;;24.70;90.60;;;;;;12113960;28;20062;-53
2021/08/09 15:28:44;;;;;;;6.43;2.10;;;24.70;90.00;;;;;;12113393;28;20507;-55
2021/08/09 15:34:32;;;;;;;5.40;2.25;;;24.60;90.00;;;;;;12114351;28;20047;-57
2021/08/09 15:40:19;;;;;;;6.70;2.13;;;24.80;89.00;;;;;;12113180;28;20048;-57
2021/08/09 15:46:06;;;;;;;5.15;2.15;;;24.50;89.10;;;;;;12113872;28;20422;-56
2021/08/09 15:51:54;;;;;;;9.85;2.60;;;24.50;90.00;;;;;;12099790;28;20503;-56
2021/08/09 15:57:42;;;;;;;7.38;2.97;;;24.80;88.80;;;;;;12096719;28;20170;-58
2021/08/09 16:03:29;;;;;;;4.80;1.85;;;24.80;88.00;;;;;;12086307;28;20047;-56
2021/08/09 16:09:18;;;;;;;6.80;2.33;;;25.40;86.60;;;;;;12086925;28;20469;-56
2021/08/09 16:15:06;;;;;;;6.47;1.90;;;27.40;80.70;;;;;;12092611;28;20048;-58
2021/08/09 16:20:53;;;;;;;4.50;2.05;;;27.90;77.40;;;;;;12110269;28;20161;-55
2021/08/09 16:26:42;;;;;;;3.85;1.92;;;29.20;74.20;;;;;;12117941;28;20032;-55
2021/08/09 16:32:30;;;;;;;2.53;1.48;;;29.20;71.20;;;;;;12118460;28;20048;-56
2021/08/09 16:38:17;;;;;;;4.68;2.00;;;28.60;71.50;;;;;;12117686;28;20052;-57
2021/08/09 16:44:05;;;;;;;5.90;2.45;;;27.40;74.60;;;;;;12117135;28;20040;-57
2021/08/09 16:49:52;;;;;;;5.10;2.00;;;26.60;78.10;;;;;;12115841;28;20055;-55
2021/08/09 16:55:39;;;;;;;5.82;2.20;;;26.50;78.50;;;;;;12090938;28;20047;-55
2021/08/09 17:08:11;;;;;;;3.17;2.05;;;27.50;76.20;;;;;;12131042;22;20114;-75
2021/08/09 17:13:59;;;;;;;4.32;1.92;;;26.80;77.80;;;;;;11939456;28;20057;-74
2021/08/09 17:19:47;;;;;;;3.33;1.60;;;26.20;79.90;;;;;;11943179;28;20422;-75
2021/08/09 17:25:36;;;;;;;5.03;2.00;;;25.80;79.80;;;;;;11941839;28;20053;-75
2021/08/09 17:31:23;;;;;;;4.18;2.28;;;25.40;81.50;;;;;;11944911;28;20583;-74
2021/08/09 17:37:13;;;;;;;6.97;2.20;;;25.30;82.40;;;;;;11945701;28;20060;-75
2021/08/09 17:43:02;;;;;;;4.63;2.40;;;25.00;82.80;;;;;;11940874;28;20053;-75
2021/08/09 17:48:49;;;;;;;3.80;2.25;;;24.50;84.30;;;;;;11946896;28;20053;-80
2021/08/09 17:54:36;;;;;;;7.97;2.10;;;24.30;85.70;;;;;;11909253;28;20053;-79
2021/08/09 18:00:24;;;;;;;5.80;2.30;;;24.10;86.00;;;;;;11902155;28;20505;-80
2021/08/09 18:06:11;;;;;;;7.32;2.15;;;24.00;86.80;;;;;;11904767;28;20049;-80
2021/08/09 18:11:58;;;;;;;7.28;2.45;;;24.00;86.90;;;;;;11906011;28;20111;-79
2021/08/09 18:17:46;;;;;;;12.75;2.83;;;23.70;88.00;;;;;;11901857;28;20054;-81
2021/08/09 18:23:34;;;;;;;6.53;2.35;;;23.80;88.70;;;;;;11902026;28;20049;-81
2021/08/09 18:29:21;;;;;;;8.32;2.03;;;23.70;88.50;;;;;;11904311;28;20588;-82
2021/08/09 18:35:11;;;;;;;5.15;2.10;;;23.70;88.60;;;;;;11900819;28;20713;-82
2021/08/09 18:40:58;;;;;;;6.55;2.65;;;23.70;88.80;;;;;;11904659;28;20050;-82
2021/08/09 18:46:47;;;;;;;9.32;2.17;;;23.70;89.40;;;;;;11893786;28;20052;-76
2021/08/09 18:52:35;;;;;;;4.75;2.10;;;23.50;89.70;;;;;;11893298;28;20058;-77
2021/08/09 18:58:22;;;;;;;4.57;2.35;;;23.50;90.10;;;;;;11895982;28;20049;-77
2021/08/09 19:04:10;;;;;;;4.32;2.20;;;23.30;90.40;;;;;;11886824;28;20508;-76
2021/08/09 19:09:59;;;;;;;5.78;2.40;;;23.20;90.50;;;;;;11895429;28;20061;-77
2021/08/09 19:15:47;;;;;;;6.53;2.65;;;23.20;90.70;;;;;;11894423;28;20064;-76
2021/08/09 19:21:34;;;;;;;7.75;2.50;;;23.20;90.80;;;;;;11892252;28;20111;-77
2021/08/09 19:27:22;;;;;;;4.55;2.33;;;23.20;90.80;;;;;;11893756;28;20416;-76
2021/08/09 19:33:09;;;;;;;4.78;2.25;;;23.20;90.80;;;;;;11895565;28;20057;-77
2021/08/09 19:38:58;;;;;;;4.75;2.40;;;23.10;91.20;;;;;;11889095;28;20054;-79
2021/08/09 19:44:46;;;;;;;6.10;2.90;;;23.00;91.40;;;;;;11894000;28;20100;-78
2021/08/09 19:50:33;;;;;;;6.95;3.03;;;23.00;92.30;;;;;;11889895;28;20049;-79
2021/08/09 19:56:20;;;;;;;6.13;2.67;;;22.90;93.00;;;;;;11886279;28;20065;-77
2021/08/09 20:02:08;;;;;;;4.22;2.10;;;22.90;93.50;;;;;;11897598;28;20049;-76
2021/08/09 20:07:55;;;;;;;8.38;2.78;;;22.80;93.90;;;;;;11905218;28;20050;-77
2021/08/09 20:13:42;;;;;;;4.93;2.22;;;22.60;94.00;;;;;;11896487;28;20057;-76
2021/08/09 20:19:30;;;;;;;7.72;2.40;;;22.50;94.40;;;;;;11902277;28;20042;-78
2021/08/09 20:25:17;;;;;;;4.97;2.55;;;22.30;94.70;;;;;;11905007;28;20054;-77
2021/08/09 20:31:05;;;;;;;8.98;2.53;;;22.20;95.00;;;;;;11902983;28;20046;-77
2021/08/09 20:36:53;;;;;;;6.75;2.60;;;22.10;95.30;;;;;;11908588;28;20057;-76
2021/08/09 20:42:41;;;;;;;5.57;2.50;;;22.00;95.60;;;;;;11902944;28;20041;-76
2021/08/09 20:48:28;;;;;;;8.98;2.50;;;21.90;95.60;;;;;;11902766;28;20050;-76
2021/08/09 20:54:17;;;;;;;5.50;2.25;;;21.90;95.90;;;;;;11903730;28;20756;-77
2021/08/09 21:00:04;;;;;;;5.22;2.40;;;21.90;96.10;;;;;;11905890;28;20046;-76
2021/08/09 21:05:51;;;;;;;7.82;3.13;;;21.90;95.80;;;;;;11899635;28;20113;-76
2021/08/09 21:11:39;;;;;;;10.05;5.47;;;21.90;95.90;;;;;;11901604;28;20065;-77
2021/08/09 21:17:27;;;;;;;6.68;3.47;;;21.90;96.40;;;;;;11898732;28;20326;-77
2021/08/09 21:23:14;;;;;;;9.30;3.22;;;22.00;96.10;;;;;;11902027;28;20057;-77
2021/08/09 21:29:02;;;;;;;4.70;2.63;;;21.90;96.70;;;;;;11897204;28;20038;-77
2021/08/09 21:34:49;;;;;;;7.35;3.40;;;21.90;96.60;;;;;;11897284;28;20060;-77
2021/08/09 21:40:36;;;;;;;6.05;3.03;;;21.90;96.90;;;;;;11901280;28;20053;-77
2021/08/09 21:46:25;;;;;;;5.72;2.97;;;21.90;97.00;;;;;;11905646;28;20042;-77
2021/08/09 21:52:11;;;;;;;8.93;3.15;;;21.80;97.30;;;;;;11905870;28;20046;-77
2021/08/09 21:58:00;;;;;;;8.35;3.60;;;21.90;97.50;;;;;;11903316;28;20528;-77
2021/08/09 22:03:48;;;;;;;6.75;3.13;;;22.00;97.70;;;;;;11905357;28;20475;-76
2021/08/09 22:09:35;;;;;;;10.30;3.65;;;22.00;97.60;;;;;;11900052;28;20054;-76
2021/08/09 22:15:22;;;;;;;10.75;3.90;;;22.00;97.70;;;;;;11903589;28;21427;-77
2021/08/09 22:21:13;;;;;;;6.93;3.95;;;22.00;97.80;;;;;;11901031;28;20570;-78
2021/08/09 22:27:01;;;;;;;10.50;3.58;;;22.00;98.30;;;;;;11901506;28;20050;-76
2021/08/09 22:32:49;;;;;;;6.07;3.00;;;21.90;98.20;;;;;;11901996;28;20485;-78
2021/08/09 22:38:39;;;;;;;6.53;3.78;;;21.90;98.50;;;;;;11904338;28;20042;-78
2021/08/09 22:44:26;;;;;;;9.98;3.88;;;21.90;98.60;;;;;;11902902;28;20053;-78
2021/08/09 22:50:13;;;;;;;9.55;3.92;;;21.90;98.80;;;;;;11902562;28;20049;-77
2021/08/09 22:56:02;;;;;;;7.78;3.38;;;21.90;99.00;;;;;;11898951;28;20072;-77
2021/08/09 23:01:49;;;;;;;6.22;3.63;;;21.90;99.00;;;;;;11904707;28;20046;-77
2021/08/09 23:07:35;;;;;;;6.32;3.25;;;22.00;99.80;;;;;;11903228;28;20050;-78
2021/08/09 23:13:24;;;;;;;7.63;3.22;;;21.90;99.20;;;;;;11902867;28;20053;-78
2021/08/09 23:19:10;;;;;;;7.22;3.10;;;22.00;99.50;;;;;;11902367;28;20116;-77
